Weller, Iowa
Current Conditions -  °F | °C
As of 3:35 AM on Sunday 26 Oct 2014 (Local Time) from KOXV Reporting Station
Clear Clear  
Wind Chill: 46°   Ceiling: Unl
Heat Index: 48°   Visibility: 10mi
Dew Point: 36°   Wind: 6mph
Humidity: 62%   Direction: 100°E
Pressure: 30.02"   Gusts: NA
Location:  41.1173°N, 92.9847°W
Report Text: KOXV 260835Z AUTO 10005KT 10SM CLR 09/02 A3002 RMK AO2
Loading
Personal Weather Stations






























Interactive Weather Map
Tropical Storm Tracking
New forecast layout! Learn more

10-Day Weather Forecast

Advertisements
Track Severe Weather on mobile